Portada
METAR-TAF:

METAR-TAF

Aeropuertos :

Aeropuerto de Saint-Étienne - Bouthéon

Saint-Etienne, Francia

latitud: 45-32N, longitud: 004-18E, altitud: 404 m

Observación

El informe se hizo hace 33 minutos, a las 13:00 UTC
Viento 8 kt del norte-noroeste, variando entre oeste-noroeste y norte-noreste
Temperatura 8°C
Humedad 61%
Presión 1035 hPa
Visibilidad 10 km o más
Cielo cubierto a una altura de 3200 ft

METAR: LFMH 031300Z AUTO 33008KT 290V020 9999 OVC032 08/01 Q1035

Hora: 14:33 (13:33 UTC)


TAF: falta

Observaciones y pronósticos meteorológicos de más de 4000 aeropuertos (mensajes METAR y TAF).

Los puntos amarillos y rojos representan las estaciones disponibles.

Ponga el ratón en el punto deseado para ver el nombre de la estación.

Haga clic para ver las observaciones y los pronósticos meteorológicos.

Para cambiar el mapa : haga clic en los botones verdes con una cruz de color negro para hacer un zoom, en el botón verde con un guión para alejar o en las flechas verdes para mapas adyacentes.


METAR-TAF: